D/T METAR WX W/SPE G/SPE TEMP DEWP FEEL
25/05/22 00:50 EGPK 242350Z 17006KT 9999 FEW046 10/08 Q1004 6.9mph 10°C 8°C 10.4°C
24/05/22 23:50 EGPK 242250Z 18004KT 9999 FEW031 SCT042 10/08 Q1005 RERA 4.6mph 10°C 8°C 10.4°C
24/05/22 23:20 EGPK 242220Z 21007KT 5000 RA FEW021 BKN027 BKN032 10/08 Q1005 RA 8.1mph 10°C 8°C 10.4°C
24/05/22 22:50 EGPK 242150Z 18005KT 9999 -RA BKN036 BKN043 10/08 Q1005 -RA 5.8mph 10°C 8°C 10.4°C
24/05/22 21:50 EGPK 242050Z 25006KT 9999 BKN047 11/07 Q1005 6.9mph 11°C 7°C 11.0°C
24/05/22 21:20 EGPK 242020Z 25007KT CAVOK 11/07 Q1005 8.1mph 11°C 7°C 11.0°C
24/05/22 20:50 EGPK 241950Z 24007KT 190V280 9999 FEW040 11/07 Q1005 8.1mph 11°C 7°C 11.0°C
24/05/22 20:20 EGPK 241920Z 27011KT 9999 FEW040 12/07 Q1004 12.7mph 12°C 7°C 12.0°C
24/05/22 19:50 EGPK 241850Z 28010KT 9999 FEW040 12/07 Q1004 11.5mph 12°C 7°C 12.0°C
24/05/22 19:20 EGPK 241820Z 28009KT 9999 FEW020 SCT044 12/08 Q1004 10.4mph 12°C 8°C 12.4°C
24/05/22 18:50 EGPK 241750Z 29011KT 9999 -RA FEW023 SCT043 12/09 Q1004 -RA 12.7mph 12°C 9°C 12.8°C
24/05/22 18:20 EGPK 241720Z 28013KT 9999 -RA FEW025 SCT040 11/08 Q1004 -RA 15.0mph 11°C 8°C 11.4°C
24/05/22 17:50 EGPK 241650Z 28016KT 9999 -RA FEW026 SCT037 12/09 Q1004 -RA 18.4mph 12°C 9°C 12.8°C
24/05/22 17:20 EGPK 241620Z 27011KT 9999 -RA FEW027 SCT038 12/09 Q1004 -RA 12.7mph 12°C 9°C 12.8°C
24/05/22 16:50 EGPK 241550Z 26012KT 9999 -SHRA FEW040 SCT047 12/09 Q1004 -SHRA 13.8mph 12°C 9°C 12.8°C
24/05/22 16:20 EGPK 241520Z 26014KT 9999 FEW040 SCT048 13/09 Q1004 16.1mph 13°C 9°C 13.8°C
24/05/22 15:50 EGPK 241450Z 27017KT 9999 FEW025 SCT038 13/09 Q1004 19.6mph 13°C 9°C 13.8°C
24/05/22 15:20 EGPK 241420Z 27015KT 9999 FEW028 SCT038 13/08 Q1003 17.3mph 13°C 8°C 13.4°C
24/05/22 14:50 EGPK 241350Z 26013KT 9999 FEW020 SCT045 14/09 Q1003 15.0mph 14°C 9°C 14.8°C
24/05/22 13:50 EGPK 241250Z 28009KT 240V300 9999 FEW025 BKN043 13/10 Q1003 10.4mph 13°C 10°C 14.3°C
24/05/22 13:20 EGPK 241220Z 24014KT 8000 -SHRA FEW008 SCT039 13/10 Q1003 -SHRA 16.1mph 13°C 10°C 14.3°C
24/05/22 12:50 EGPK 241150Z 24014KT 210V270 9999 FEW020 SCT038 13/09 Q1002 16.1mph 13°C 9°C 13.8°C
24/05/22 12:20 EGPK 241120Z 25013KT 9999 FEW017 SCT040 13/09 Q1002 15.0mph 13°C 9°C 13.8°C
24/05/22 11:50 EGPK 241050Z 25013KT 9999 -RA FEW015 SCT035 13/09 Q1002 -RA 15.0mph 13°C 9°C 13.8°C
24/05/22 11:20 EGPK 241020Z 24015KT 9999 SCT030 13/09 Q1002 17.3mph 13°C 9°C 13.8°C
24/05/22 10:50 EGPK 240950Z 24013KT 210V270 9999 SCT040 13/09 Q1002 15.0mph 13°C 9°C 13.8°C
24/05/22 10:20 EGPK 240920Z 25012KT 9999 SCT045 13/09 Q1002 13.8mph 13°C 9°C 13.8°C
24/05/22 09:50 EGPK 240850Z 26011KT 220V290 9999 SCT046 13/09 Q1002 12.7mph 13°C 9°C 13.8°C
24/05/22 08:50 EGPK 240750Z 28008KT 250V310 9999 FEW015 SCT029 BKN036 12/08 Q1002 9.2mph 12°C 8°C 12.4°C
24/05/22 08:20 EGPK 240720Z 29010KT 9999 FEW030 11/08 Q1002 11.5mph 11°C 8°C 11.4°C
24/05/22 07:50 EGPK 240650Z 31009KT 9999 FEW030 11/08 Q1001 10.4mph 11°C 8°C 11.4°C
24/05/22 07:20 EGPK 240620Z 30010KT 9999 FEW025 11/08 Q1001 11.5mph 11°C 8°C 11.4°C
24/05/22 06:50 EGPK 240550Z 30009KT 9999 FEW015 10/08 Q1001 10.4mph 10°C 8°C 10.4°C
24/05/22 06:20 EGPK 240520Z 29008KT 9999 FEW048 10/08 Q1001 9.2mph 10°C 8°C 10.4°C
24/05/22 05:50 EGPK 240450Z 30009KT 9999 FEW040 10/08 Q1000 10.4mph 10°C 8°C 10.4°C
24/05/22 05:20 EGPK 240420Z AUTO 30009KT 9999 NCD 10/08 Q1000 10.4mph 10°C 8°C 10.4°C
24/05/22 04:50 EGPK 240350Z 30008KT 9999 SCT048 10/08 Q1000 9.2mph 10°C 8°C 10.4°C
24/05/22 04:20 EGPK 240320Z AUTO 31007KT 9999 NCD 10/08 Q1000 8.1mph 10°C 8°C 10.4°C
24/05/22 03:50 EGPK 240250Z AUTO 31011KT 9999 SCT013/// 10/08 Q1000 12.7mph 10°C 8°C 10.4°C
24/05/22 03:20 EGPK 240220Z AUTO 29011KT 9999 FEW015/// 10/08 Q1000 12.7mph 10°C 8°C 10.4°C
24/05/22 02:50 EGPK 240150Z 30008KT 9999 FEW016 10/08 Q1000 9.2mph 10°C 8°C 10.4°C
24/05/22 02:20 EGPK 240120Z 30008KT 9999 SCT016 10/08 Q1000 9.2mph 10°C 8°C 10.4°C
24/05/22 01:50 EGPK 240050Z 30007KT 9999 SCT015 10/08 Q1000 8.1mph 10°C 8°C 10.4°C
24/05/22 01:20 EGPK 240020Z 31008KT 9999 FEW016 10/07 Q1000 9.2mph 10°C 7°C 10.0°C
24/05/22 00:50 EGPK 232350Z 30007KT 9999 FEW017 10/07 Q1000 8.1mph 10°C 7°C 10.0°C
24/05/22 00:20 EGPK 232320Z 30010KT 9999 FEW021 10/07 Q1000 11.5mph 10°C 7°C 10.0°C
23/05/22 23:50 EGPK 232250Z 30009KT 9999 SCT048 10/07 Q1000 10.4mph 10°C 7°C 10.0°C
23/05/22 23:20 EGPK 232220Z 30008KT 9999 SCT048 10/07 Q1000 9.2mph 10°C 7°C 10.0°C
23/05/22 22:50 EGPK 232150Z 30009KT 9999 FEW044 10/07 Q1000 10.4mph 10°C 7°C 10.0°C
23/05/22 22:20 EGPK 232120Z 30011KT 9999 FEW044 11/07 Q1000 12.7mph 11°C 7°C 11.0°C
23/05/22 21:50 EGPK 232050Z 30012KT 9999 FEW044 11/07 Q1000 13.8mph 11°C 7°C 11.0°C
23/05/22 21:20 EGPK 232020Z 30012KT 9999 FEW040 11/07 Q1000 13.8mph 11°C 7°C 11.0°C
23/05/22 20:50 EGPK 231950Z 30014KT 9999 FEW038 12/07 Q1000 16.1mph 12°C 7°C 12.0°C
23/05/22 20:20 EGPK 231920Z 30015KT 9999 FEW038 12/07 Q1000 17.3mph 12°C 7°C 12.0°C
23/05/22 19:50 EGPK 231850Z 29014KT 9999 FEW038 13/07 Q1000 16.1mph 13°C 7°C 13.0°C
23/05/22 19:20 EGPK 231820Z 30015KT 9999 FEW037 13/07 Q1000 17.3mph 13°C 7°C 13.0°C
23/05/22 18:50 EGPK 231750Z 30014KT 9999 SCT037 13/07 Q0999 16.1mph 13°C 7°C 13.0°C
23/05/22 18:20 EGPK 231720Z 30014KT 9999 SCT039 13/07 Q0999 16.1mph 13°C 7°C 13.0°C
23/05/22 17:50 EGPK 231650Z 29013KT 9999 FEW040 14/07 Q0999 15.0mph 14°C 7°C 14.0°C
23/05/22 17:20 EGPK 231620Z 25010KT 9999 FEW039 14/08 Q0999 11.5mph 14°C 8°C 14.4°C
23/05/22 16:50 EGPK 231550Z 26008KT 230V310 9999 FEW038 14/08 Q0999 9.2mph 14°C 8°C 14.4°C
23/05/22 16:20 EGPK 231520Z 27008KT 240V320 9999 FEW039 15/09 Q0999 9.2mph 15°C 9°C 15.8°C
23/05/22 15:20 EGPK 231420Z 26007KT 220V310 9999 SCT038 14/08 Q1000 8.1mph 14°C 8°C 14.4°C
23/05/22 14:20 EGPK 231320Z 26006KT 220V310 9999 SCT034 BKN043 13/07 Q1000 6.9mph 13°C 7°C 13.0°C
23/05/22 13:50 EGPK 231250Z 25009KT 9999 FEW030 BKN038 13/09 Q1000 10.4mph 13°C 9°C 13.8°C
23/05/22 13:20 EGPK 231220Z 24011KT 9999 SCT035 BKN043 13/10 Q1000 12.7mph 13°C 10°C 14.3°C
23/05/22 12:50 EGPK 231150Z 27008KT 230V290 9999 FEW015 SCT033 14/09 Q1000 9.2mph 14°C 9°C 14.8°C
23/05/22 12:20 EGPK 231120Z 27010KT 230V300 9999 FEW014 SCT031 14/10 Q1000 11.5mph 14°C 10°C 15.3°C
23/05/22 11:50 EGPK 231050Z 25014KT 9999 SCT035 13/09 Q1000 16.1mph 13°C 9°C 13.8°C
23/05/22 11:20 EGPK 231020Z 27011KT 9999 SCT035 14/09 Q1000 12.7mph 14°C 9°C 14.8°C
23/05/22 10:50 EGPK 230950Z 28012KT 9999 SCT022 13/09 Q1000 13.8mph 13°C 9°C 13.8°C
23/05/22 10:20 EGPK 230920Z 27010KT 9999 SCT020 13/10 Q1000 11.5mph 13°C 10°C 14.3°C
23/05/22 09:50 EGPK 230850Z 27006KT 9999 SCT016 12/10 Q1000 6.9mph 12°C 10°C 13.3°C
23/05/22 09:20 EGPK 230820Z 26007KT 230V300 9999 VCSH FEW007 SCT019 BKN033 11/10 Q1000 VCSH 8.1mph 11°C 10°C 12.3°C
23/05/22 08:50 EGPK 230750Z 27011KT 5000 -RA BKN011 11/10 Q1000 -RA 12.7mph 11°C 10°C 12.3°C
23/05/22 08:20 EGPK 230720Z 26010KT 8000 RADZ FEW007 BKN012 11/10 Q1000 RA DZ 11.5mph 11°C 10°C 12.3°C
23/05/22 07:50 EGPK 230650Z 25010KT 9999 -RA BKN012 11/10 Q1000 -RA 11.5mph 11°C 10°C 12.3°C
23/05/22 07:20 EGPK 230620Z 24012KT 9999 BKN014 11/10 Q1000 13.8mph 11°C 10°C 12.3°C
23/05/22 06:50 EGPK 230550Z 24011KT 9999 SCT008 BKN015 11/10 Q1000 12.7mph 11°C 10°C 12.3°C
23/05/22 06:20 EGPK 230520Z 23009KT 210V270 9999 SCT008 BKN012 OVC020 11/10 Q1000 10.4mph 11°C 10°C 12.3°C
23/05/22 05:50 EGPK 230450Z 21007KT 180V240 9999 FEW008 SCT011 OVC037 10/09 Q1000 8.1mph 10°C 9°C 10.8°C
23/05/22 05:20 EGPK 230420Z 19007KT 160V220 9999 SCT012 BKN019 OVC024 10/09 Q1000 8.1mph 10°C 9°C 10.8°C
23/05/22 04:20 EGPK 230320Z 16004KT 9999 SCT030 09/08 Q1001 4.6mph 9°C 8°C 9.4°C
23/05/22 03:50 EGPK 230250Z 19005KT 9999 BKN031 10/08 Q1001 5.8mph 10°C 8°C 10.4°C
23/05/22 03:20 EGPK 230220Z 19005KT 9999 FEW027 OVC034 10/08 Q1001 5.8mph 10°C 8°C 10.4°C
23/05/22 02:50 EGPK 230150Z AUTO 19006KT 9999 SCT034/// 10/08 Q1001 6.9mph 10°C 8°C 10.4°C
23/05/22 02:20 EGPK 230120Z AUTO 19008KT 9999 FEW026/// 10/08 Q1001 9.2mph 10°C 8°C 10.4°C
23/05/22 01:50 EGPK 230050Z AUTO 19005KT 9999 FEW030/// 10/09 Q1001 5.8mph 10°C 9°C 10.8°C
23/05/22 01:20 EGPK 230020Z 19006KT 9999 FEW032 BKN038 11/09 Q1002 6.9mph 11°C 9°C 11.8°C
23/05/22 00:50 EGPK 222350Z 17008KT 9999 BKN032 OVC038 11/10 Q1002 9.2mph 11°C 10°C 12.3°C
23/05/22 00:20 EGPK 222320Z 18005KT 160V230 9999 BKN038 11/10 Q1002 5.8mph 11°C 10°C 12.3°C
22/05/22 23:20 EGPK 222220Z 15005KT 9999 SCT048 11/10 Q1002 5.8mph 11°C 10°C 12.3°C
22/05/22 22:50 EGPK 222150Z 17005KT 9999 SCT048 11/10 Q1002 5.8mph 11°C 10°C 12.3°C
22/05/22 21:50 EGPK 222050Z 16005KT 9999 SCT045 11/10 Q1003 5.8mph 11°C 10°C 12.3°C
22/05/22 21:20 EGPK 222020Z 19006KT 9999 SCT045 11/10 Q1003 6.9mph 11°C 10°C 12.3°C
22/05/22 20:50 EGPK 221950Z 22008KT 9999 VCSH BKN040 11/10 Q1003 VCSH 9.2mph 11°C 10°C 12.3°C